createdAt,value
2018-08-16T00:00:57.043Z,21.70
2018-08-16T00:01:59.241Z,21.60
2018-08-16T00:03:01.559Z,21.70
2018-08-16T00:04:03.867Z,21.70
2018-08-16T00:05:06.121Z,21.70
2018-08-16T00:06:08.324Z,21.70
2018-08-16T00:07:10.546Z,21.80
2018-08-16T00:08:13.055Z,21.70
2018-08-16T00:09:15.301Z,21.70
2018-08-16T00:10:18.257Z,21.70
2018-08-16T00:11:20.490Z,21.70
2018-08-16T00:12:22.696Z,21.70
2018-08-16T00:13:24.893Z,21.70
2018-08-16T00:14:27.151Z,21.60
2018-08-16T00:15:29.333Z,21.70
2018-08-16T00:16:31.518Z,21.70
2018-08-16T00:17:33.753Z,21.70
2018-08-16T00:18:35.962Z,21.70
2018-08-16T00:19:38.706Z,21.70
2018-08-16T00:20:40.871Z,21.60
2018-08-16T00:21:43.107Z,21.70
2018-08-16T00:22:46.172Z,21.60
2018-08-16T00:23:48.383Z,21.50
2018-08-16T00:24:50.593Z,21.60
2018-08-16T00:25:52.798Z,21.60
2018-08-16T00:26:54.955Z,21.60
2018-08-16T00:27:57.214Z,21.50
2018-08-16T00:28:59.390Z,21.50
2018-08-16T00:30:01.629Z,21.50
2018-08-16T00:31:03.928Z,21.50
2018-08-16T00:32:06.184Z,21.50
2018-08-16T00:33:08.397Z,21.50
2018-08-16T00:34:10.594Z,21.60
2018-08-16T00:35:12.913Z,21.50
2018-08-16T00:36:15.078Z,21.50
2018-08-16T00:37:17.259Z,21.50
2018-08-16T00:38:19.458Z,21.40
2018-08-16T00:39:21.643Z,21.50
2018-08-16T00:40:26.756Z,21.50
2018-08-16T00:41:28.939Z,21.40
2018-08-16T00:42:33.940Z,21.40
2018-08-16T00:43:36.101Z,21.40
2018-08-16T00:44:38.298Z,21.40
2018-08-16T00:45:40.481Z,21.40
2018-08-16T00:46:42.682Z,21.40
2018-08-16T00:47:44.851Z,21.40
2018-08-16T00:48:47.037Z,21.40
2018-08-16T00:49:49.261Z,21.40
2018-08-16T00:50:51.446Z,21.40
2018-08-16T00:51:53.625Z,21.40
2018-08-16T00:52:55.799Z,21.40
2018-08-16T00:53:57.970Z,21.40
2018-08-16T00:55:00.440Z,21.40
2018-08-16T00:56:02.666Z,21.30
2018-08-16T00:57:04.869Z,21.30
2018-08-16T00:58:07.063Z,21.30
2018-08-16T00:59:09.245Z,21.20
2018-08-16T01:00:13.786Z,21.30
2018-08-16T01:01:15.986Z,21.40
2018-08-16T01:02:18.185Z,21.40
2018-08-16T01:03:20.416Z,21.40
2018-08-16T01:04:22.605Z,21.30
2018-08-16T01:05:24.785Z,21.30
2018-08-16T01:06:27.001Z,21.30
2018-08-16T01:07:29.239Z,21.30
2018-08-16T01:08:31.432Z,21.30
2018-08-16T01:09:33.599Z,21.40
2018-08-16T01:10:35.800Z,21.40
2018-08-16T01:11:37.960Z,21.40
2018-08-16T01:12:40.705Z,21.40
2018-08-16T01:13:42.894Z,21.50
2018-08-16T01:14:45.137Z,21.40
2018-08-16T01:15:47.333Z,21.40
2018-08-16T01:16:49.538Z,21.40
2018-08-16T01:17:51.710Z,21.30
2018-08-16T01:18:53.881Z,21.30
2018-08-16T01:19:56.077Z,21.30
2018-08-16T01:20:58.290Z,21.30
2018-08-16T01:22:00.466Z,21.30
2018-08-16T01:23:02.650Z,21.30
2018-08-16T01:24:04.853Z,21.30
2018-08-16T01:25:08.214Z,21.20
2018-08-16T01:26:10.401Z,21.20
2018-08-16T01:27:12.636Z,21.20
2018-08-16T01:28:14.810Z,21.20
2018-08-16T01:29:17.005Z,21.10
2018-08-16T01:30:19.213Z,21.10
2018-08-16T01:31:21.570Z,21.10
2018-08-16T01:32:23.762Z,21.10
2018-08-16T01:33:25.925Z,21.20
2018-08-16T01:34:28.120Z,21.10
2018-08-16T01:35:30.310Z,21.20
2018-08-16T01:36:32.494Z,21.10
2018-08-16T01:37:34.689Z,21.10
2018-08-16T01:38:36.846Z,21.10
2018-08-16T01:39:39.014Z,21.10
2018-08-16T01:40:41.165Z,21.10
2018-08-16T01:41:43.337Z,21.10
2018-08-16T01:42:45.485Z,21.10
2018-08-16T01:43:47.669Z,21.10
2018-08-16T01:44:49.822Z,21.10
2018-08-16T01:45:51.999Z,21.10
2018-08-16T01:46:54.171Z,21.10
2018-08-16T01:47:56.342Z,21.00
2018-08-16T01:48:58.791Z,21.10
2018-08-16T01:50:00.977Z,21.00
2018-08-16T01:51:03.183Z,21.00
2018-08-16T01:52:05.486Z,20.90
2018-08-16T01:53:07.818Z,20.90
2018-08-16T01:54:10.017Z,20.90
2018-08-16T01:55:12.177Z,20.90
2018-08-16T01:56:14.355Z,20.90
2018-08-16T01:57:16.546Z,20.90
2018-08-16T01:58:18.721Z,20.90
2018-08-16T01:59:20.926Z,21.00
2018-08-16T02:00:23.098Z,20.90
2018-08-16T02:01:25.278Z,20.90
2018-08-16T02:02:27.473Z,20.90
2018-08-16T02:03:29.720Z,20.90
2018-08-16T02:04:31.894Z,21.00
2018-08-16T02:05:34.097Z,20.90
2018-08-16T02:06:36.269Z,20.90
2018-08-16T02:07:38.443Z,20.90
2018-08-16T02:08:40.641Z,20.90
2018-08-16T02:09:42.816Z,20.90
2018-08-16T02:10:45.007Z,20.90
2018-08-16T02:11:47.185Z,20.90
2018-08-16T02:12:49.356Z,20.80
2018-08-16T02:13:51.544Z,20.80
2018-08-16T02:14:53.734Z,20.80
2018-08-16T02:15:55.897Z,20.80
2018-08-16T02:16:58.094Z,20.80
2018-08-16T02:18:00.305Z,20.70
2018-08-16T02:19:02.488Z,20.70
2018-08-16T02:20:05.854Z,20.60
2018-08-16T02:21:08.017Z,20.60
2018-08-16T02:22:10.193Z,20.60
2018-08-16T02:23:12.346Z,20.60
2018-08-16T02:24:14.524Z,20.60
2018-08-16T02:25:16.768Z,20.70
2018-08-16T02:26:18.947Z,20.60
2018-08-16T02:27:21.129Z,20.60
2018-08-16T02:28:23.993Z,20.60
2018-08-16T02:29:26.155Z,20.60
2018-08-16T02:30:28.343Z,20.60
2018-08-16T02:31:31.005Z,20.60
2018-08-16T02:32:33.249Z,20.60
2018-08-16T02:33:35.425Z,20.50
2018-08-16T02:34:37.664Z,20.50
2018-08-16T02:35:39.817Z,20.50
2018-08-16T02:36:41.994Z,20.50
2018-08-16T02:37:44.174Z,20.50
2018-08-16T02:38:46.321Z,20.50
2018-08-16T02:39:48.491Z,20.40
2018-08-16T02:40:50.658Z,20.40
2018-08-16T02:41:52.867Z,20.40
2018-08-16T02:42:55.051Z,20.40
2018-08-16T02:43:57.236Z,20.40
2018-08-16T02:44:59.428Z,20.40
2018-08-16T02:46:01.625Z,20.40
2018-08-16T02:47:03.806Z,20.40
2018-08-16T02:48:06.091Z,20.40
2018-08-16T02:49:08.262Z,20.40
2018-08-16T02:50:10.442Z,20.40
2018-08-16T02:51:12.690Z,20.40
2018-08-16T02:52:14.865Z,20.40
2018-08-16T02:53:17.097Z,20.40
2018-08-16T02:54:19.226Z,20.50
2018-08-16T02:55:21.353Z,20.30
2018-08-16T02:56:23.562Z,20.30
2018-08-16T02:57:25.753Z,20.40
2018-08-16T02:58:27.970Z,20.40
2018-08-16T02:59:30.150Z,20.40
2018-08-16T03:00:32.339Z,20.40
2018-08-16T03:01:34.518Z,20.40
2018-08-16T03:02:36.726Z,20.40
2018-08-16T03:03:38.885Z,20.40
2018-08-16T03:04:41.030Z,20.40
2018-08-16T03:05:43.182Z,20.50
2018-08-16T03:06:45.345Z,20.40
2018-08-16T03:07:47.499Z,20.40
2018-08-16T03:08:49.646Z,20.40
2018-08-16T03:09:51.802Z,20.40
2018-08-16T03:10:53.982Z,20.40
2018-08-16T03:11:56.140Z,20.30
2018-08-16T03:12:58.338Z,20.30
2018-08-16T03:14:00.497Z,20.30
2018-08-16T03:15:02.894Z,20.30
2018-08-16T03:16:05.259Z,20.30
2018-08-16T03:17:07.442Z,20.30
2018-08-16T03:18:09.707Z,20.20
2018-08-16T03:19:11.874Z,20.20
2018-08-16T03:20:14.057Z,20.20
2018-08-16T03:21:16.243Z,20.20
2018-08-16T03:22:18.372Z,20.20
2018-08-16T03:23:20.541Z,20.30
2018-08-16T03:24:22.706Z,20.20
2018-08-16T03:25:24.853Z,20.20
2018-08-16T03:26:27.021Z,20.20
2018-08-16T03:27:29.193Z,20.20
2018-08-16T03:28:31.349Z,20.30
2018-08-16T03:29:33.505Z,20.20
2018-08-16T03:30:35.674Z,20.20
2018-08-16T03:31:37.870Z,20.30
2018-08-16T03:32:40.029Z,20.20
2018-08-16T03:33:42.198Z,20.20
2018-08-16T03:34:44.345Z,20.20
2018-08-16T03:35:46.498Z,20.20
2018-08-16T03:36:48.668Z,20.30
2018-08-16T03:37:50.833Z,20.20
2018-08-16T03:38:53.058Z,20.20
2018-08-16T03:39:55.215Z,20.20
2018-08-16T03:40:57.358Z,20.20
2018-08-16T03:41:59.650Z,20.20
2018-08-16T03:43:01.805Z,20.20
2018-08-16T03:44:04.236Z,20.20
2018-08-16T03:45:07.169Z,20.20
2018-08-16T03:46:09.344Z,20.10
2018-08-16T03:47:11.506Z,20.10
2018-08-16T03:48:13.764Z,20.10
2018-08-16T03:49:15.878Z,20.20
2018-08-16T03:50:18.025Z,20.10
2018-08-16T03:51:20.163Z,20.10
2018-08-16T03:52:22.315Z,20.10
2018-08-16T03:53:24.473Z,20.00
2018-08-16T03:54:26.654Z,20.00
2018-08-16T03:55:28.901Z,20.00
2018-08-16T03:56:31.151Z,20.00
2018-08-16T03:57:33.369Z,20.00
2018-08-16T03:58:35.570Z,20.00
2018-08-16T03:59:37.716Z,20.00
2018-08-16T04:00:39.902Z,20.00
2018-08-16T04:01:42.075Z,20.10
2018-08-16T04:02:44.251Z,20.00
2018-08-16T04:03:46.415Z,19.90
2018-08-16T04:04:48.562Z,19.90
2018-08-16T04:05:50.733Z,19.90
2018-08-16T04:06:52.949Z,19.90
2018-08-16T04:07:55.106Z,19.90
2018-08-16T04:08:57.349Z,19.90
2018-08-16T04:09:59.518Z,20.00
2018-08-16T04:11:01.706Z,19.90
2018-08-16T04:12:04.382Z,19.90
2018-08-16T04:13:06.641Z,19.90
2018-08-16T04:14:08.805Z,19.90
2018-08-16T04:15:10.965Z,19.90
2018-08-16T04:16:13.150Z,19.90
2018-08-16T04:17:15.329Z,19.90
2018-08-16T04:18:17.472Z,19.90
2018-08-16T04:19:19.617Z,19.90
2018-08-16T04:20:21.780Z,19.90
2018-08-16T04:21:23.914Z,19.90
2018-08-16T04:22:26.102Z,19.90
2018-08-16T04:23:28.286Z,19.90
2018-08-16T04:24:30.504Z,19.80
2018-08-16T04:25:32.711Z,19.80
2018-08-16T04:26:34.881Z,19.80
2018-08-16T04:27:37.062Z,19.80
2018-08-16T04:28:39.210Z,19.80
2018-08-16T04:29:41.381Z,19.70
2018-08-16T04:30:43.590Z,19.70
2018-08-16T04:31:45.739Z,19.70
2018-08-16T04:32:47.891Z,19.70
2018-08-16T04:33:50.044Z,19.70
2018-08-16T04:34:52.214Z,19.80
2018-08-16T04:35:54.384Z,19.70
2018-08-16T04:36:56.545Z,19.80
2018-08-16T04:37:58.735Z,19.80
2018-08-16T04:39:00.885Z,19.80
2018-08-16T04:40:03.086Z,19.80
2018-08-16T04:41:05.762Z,19.80
2018-08-16T04:42:07.923Z,19.80
2018-08-16T04:43:10.076Z,19.80
2018-08-16T04:44:12.253Z,19.80
2018-08-16T04:45:14.448Z,19.80
2018-08-16T04:46:16.627Z,19.80
2018-08-16T04:47:18.789Z,19.80
2018-08-16T04:48:20.956Z,19.80
2018-08-16T04:49:23.128Z,19.80
2018-08-16T04:50:25.295Z,19.80
2018-08-16T04:51:27.458Z,19.80
2018-08-16T04:52:29.637Z,19.80
2018-08-16T04:53:31.815Z,19.80
2018-08-16T04:54:34.035Z,19.70
2018-08-16T04:55:36.225Z,19.70
2018-08-16T04:56:38.390Z,19.70
2018-08-16T04:57:40.540Z,19.60
2018-08-16T04:58:42.699Z,19.50
2018-08-16T04:59:44.854Z,19.50
2018-08-16T05:00:47.005Z,19.50
2018-08-16T05:01:49.248Z,19.50
2018-08-16T05:02:51.431Z,19.40
2018-08-16T05:03:53.582Z,19.40
2018-08-16T05:04:55.766Z,19.40
2018-08-16T05:05:57.948Z,19.40
2018-08-16T05:07:00.117Z,19.40
2018-08-16T05:08:02.257Z,19.40
2018-08-16T05:09:06.690Z,19.40
2018-08-16T05:10:09.620Z,19.50
2018-08-16T05:11:11.928Z,19.50
2018-08-16T05:12:14.038Z,19.50
2018-08-16T05:13:16.188Z,19.50
2018-08-16T05:14:18.334Z,19.50
2018-08-16T05:15:20.493Z,19.50
2018-08-16T05:16:22.686Z,19.50
2018-08-16T05:17:24.910Z,19.50
2018-08-16T05:18:27.041Z,19.50
2018-08-16T05:19:29.220Z,19.50
2018-08-16T05:20:31.377Z,19.60
2018-08-16T05:21:33.541Z,19.60
2018-08-16T05:22:35.755Z,19.60
2018-08-16T05:23:37.930Z,19.60
2018-08-16T05:24:40.075Z,19.60
2018-08-16T05:25:42.263Z,19.60
2018-08-16T05:26:44.451Z,19.60
2018-08-16T05:27:46.602Z,19.60
2018-08-16T05:28:48.803Z,19.60
2018-08-16T05:29:50.951Z,19.60
2018-08-16T05:30:53.101Z,19.60
2018-08-16T05:31:55.257Z,19.60
2018-08-16T05:32:57.451Z,19.60
2018-08-16T05:33:59.613Z,19.60
2018-08-16T05:35:01.802Z,19.60
2018-08-16T05:36:04.013Z,19.70
2018-08-16T05:37:06.169Z,19.70
2018-08-16T05:38:08.362Z,19.70
2018-08-16T05:39:11.662Z,19.80
2018-08-16T05:40:13.868Z,19.80
2018-08-16T05:41:16.028Z,19.90
2018-08-16T05:42:18.208Z,19.90
2018-08-16T05:43:20.420Z,19.90
2018-08-16T05:44:22.515Z,20.00
2018-08-16T05:45:24.706Z,20.10
2018-08-16T05:46:26.949Z,20.10
2018-08-16T05:47:29.144Z,20.20
2018-08-16T05:48:31.342Z,20.20
2018-08-16T05:49:33.497Z,20.30
2018-08-16T05:50:35.690Z,20.30
2018-08-16T05:51:37.914Z,20.30
2018-08-16T05:52:40.507Z,20.40
2018-08-16T05:53:42.681Z,20.50
2018-08-16T05:54:44.838Z,20.50
2018-08-16T05:55:46.988Z,20.60
2018-08-16T05:56:49.152Z,20.60
2018-08-16T05:57:51.310Z,20.70
2018-08-16T05:58:53.487Z,20.60
2018-08-16T05:59:55.694Z,20.70
2018-08-16T06:00:57.878Z,20.70
2018-08-16T06:02:00.100Z,20.80
2018-08-16T06:03:02.317Z,20.90
2018-08-16T06:04:04.506Z,20.90
2018-08-16T06:05:07.641Z,21.00
2018-08-16T06:06:09.859Z,20.90
2018-08-16T06:07:12.114Z,20.90
2018-08-16T06:08:14.318Z,21.00
2018-08-16T06:09:16.465Z,20.90
2018-08-16T06:10:18.649Z,20.90
2018-08-16T06:11:20.818Z,20.90
2018-08-16T06:12:23.020Z,20.90
2018-08-16T06:13:25.239Z,20.90
2018-08-16T06:14:27.447Z,20.90
2018-08-16T06:15:29.750Z,21.10
2018-08-16T06:16:31.870Z,21.00
2018-08-16T06:17:34.107Z,21.00
2018-08-16T06:18:36.297Z,20.90
2018-08-16T06:19:38.499Z,21.10
2018-08-16T06:20:40.686Z,21.10
2018-08-16T06:21:42.871Z,21.10
2018-08-16T06:22:45.028Z,21.10
2018-08-16T06:23:47.202Z,21.10
2018-08-16T06:24:49.393Z,21.10
2018-08-16T06:25:51.557Z,21.10
2018-08-16T06:26:53.734Z,21.10
2018-08-16T06:27:55.940Z,21.10
2018-08-16T06:28:58.142Z,21.10
2018-08-16T06:30:00.289Z,21.10
2018-08-16T06:31:02.525Z,21.20
2018-08-16T06:32:04.655Z,21.20
2018-08-16T06:33:06.871Z,21.10
2018-08-16T06:34:09.078Z,21.20
2018-08-16T06:35:11.384Z,21.20
2018-08-16T06:36:13.578Z,21.20
2018-08-16T06:37:15.796Z,21.20
2018-08-16T06:38:18.056Z,21.30
2018-08-16T06:39:20.228Z,21.20
2018-08-16T06:40:22.450Z,21.30
2018-08-16T06:41:24.652Z,21.20
2018-08-16T06:42:26.826Z,21.30
2018-08-16T06:43:29.000Z,21.30
2018-08-16T06:44:31.174Z,21.40
2018-08-16T06:45:33.386Z,21.40
2018-08-16T06:46:35.590Z,21.40
2018-08-16T06:47:37.821Z,21.40
2018-08-16T06:48:40.002Z,21.40
2018-08-16T06:49:42.566Z,21.40
2018-08-16T06:50:44.747Z,21.40
2018-08-16T06:51:46.952Z,21.50
2018-08-16T06:52:49.130Z,21.50
2018-08-16T06:53:51.331Z,21.50
2018-08-16T06:54:53.529Z,21.60
2018-08-16T06:55:55.707Z,21.60
2018-08-16T06:56:57.910Z,21.60
2018-08-16T06:58:00.075Z,21.60
2018-08-16T06:59:02.289Z,21.70
2018-08-16T07:00:05.032Z,21.70
2018-08-16T07:01:07.218Z,21.70
2018-08-16T07:02:09.427Z,21.70
2018-08-16T07:03:11.641Z,21.80
2018-08-16T07:04:13.861Z,21.90
2018-08-16T07:05:16.049Z,21.90
2018-08-16T07:06:18.212Z,22.00
2018-08-16T07:07:20.398Z,22.00
2018-08-16T07:08:22.646Z,22.00
2018-08-16T07:09:24.827Z,22.10
2018-08-16T07:11:36.201Z,22.00
2018-08-16T07:12:38.419Z,22.10
2018-08-16T07:13:40.614Z,22.10
2018-08-16T07:14:42.785Z,22.00
2018-08-16T07:15:44.943Z,22.10
2018-08-16T07:16:47.145Z,22.10
2018-08-16T07:17:49.287Z,22.10
2018-08-16T07:18:51.467Z,22.10
2018-08-16T07:19:53.642Z,22.20
2018-08-16T07:20:55.893Z,22.20
2018-08-16T07:21:58.085Z,22.20
2018-08-16T07:23:00.242Z,22.30
2018-08-16T07:24:02.432Z,22.30
2018-08-16T07:25:05.047Z,22.30
2018-08-16T07:26:07.428Z,22.40
2018-08-16T07:27:09.607Z,22.40
2018-08-16T07:28:11.776Z,22.50
2018-08-16T07:29:13.911Z,22.50
2018-08-16T07:30:16.070Z,22.50
2018-08-16T07:31:18.218Z,22.60
2018-08-16T07:32:20.402Z,22.60
2018-08-16T07:33:22.555Z,22.60
2018-08-16T07:34:24.726Z,22.60
2018-08-16T07:35:26.893Z,22.60
2018-08-16T07:36:29.047Z,22.60
2018-08-16T07:37:31.273Z,22.70
2018-08-16T07:38:33.438Z,22.70
2018-08-16T07:39:35.604Z,22.80
2018-08-16T07:40:37.817Z,22.80
2018-08-16T07:41:40.006Z,22.80
2018-08-16T07:42:42.161Z,22.80
2018-08-16T07:43:44.323Z,22.90
2018-08-16T07:44:46.511Z,22.90
2018-08-16T07:45:48.804Z,23.00
2018-08-16T07:46:50.844Z,23.10
2018-08-16T07:47:53.016Z,23.10
2018-08-16T07:48:55.205Z,23.10
2018-08-16T07:49:57.388Z,23.20
2018-08-16T07:50:59.593Z,23.20
2018-08-16T07:52:01.760Z,23.30
2018-08-16T07:53:03.953Z,23.30
2018-08-16T07:54:06.129Z,23.40
2018-08-16T07:55:09.150Z,23.40
2018-08-16T07:56:11.354Z,23.40
2018-08-16T07:57:13.544Z,23.50
2018-08-16T07:58:15.794Z,23.50
2018-08-16T07:59:17.942Z,23.60
2018-08-16T08:00:20.112Z,23.60
2018-08-16T08:01:22.280Z,23.60
2018-08-16T08:02:24.501Z,23.70
2018-08-16T08:03:26.715Z,23.70
2018-08-16T08:04:28.963Z,23.70
2018-08-16T08:05:31.170Z,23.70
2018-08-16T08:06:33.371Z,23.70
2018-08-16T08:07:35.541Z,23.70
2018-08-16T08:08:37.759Z,23.80
2018-08-16T08:09:39.958Z,23.90
2018-08-16T08:10:42.101Z,24.00
2018-08-16T08:11:44.293Z,23.90
2018-08-16T08:12:46.472Z,24.00
2018-08-16T08:13:48.621Z,24.00
2018-08-16T08:14:50.818Z,24.10
2018-08-16T08:15:53.083Z,24.10
2018-08-16T08:16:55.255Z,24.20
2018-08-16T08:17:57.463Z,24.30
2018-08-16T08:18:59.690Z,24.30
2018-08-16T08:20:01.936Z,24.30
2018-08-16T08:21:04.144Z,24.40
2018-08-16T08:22:06.367Z,24.40
2018-08-16T08:23:08.547Z,24.40
2018-08-16T08:24:10.745Z,24.50
2018-08-16T08:25:13.840Z,24.50
2018-08-16T08:26:16.055Z,24.60
2018-08-16T08:27:18.205Z,24.60
2018-08-16T08:28:20.398Z,24.60
2018-08-16T08:29:22.601Z,24.60
2018-08-16T08:30:24.795Z,24.60
2018-08-16T08:31:27.549Z,24.70
2018-08-16T08:32:29.749Z,24.70
2018-08-16T08:33:31.913Z,24.70
2018-08-16T08:34:34.071Z,24.80
2018-08-16T08:35:36.262Z,24.80
2018-08-16T08:36:50.009Z,24.80
2018-08-16T08:38:01.533Z,24.80
2018-08-16T08:39:06.175Z,24.80
2018-08-16T08:40:08.367Z,24.90
2018-08-16T08:41:10.553Z,24.90
2018-08-16T08:42:12.691Z,24.90
2018-08-16T08:43:27.528Z,24.90
2018-08-16T08:44:29.703Z,24.90
2018-08-16T08:45:31.889Z,24.90
2018-08-16T08:46:34.058Z,24.90
2018-08-16T08:47:41.932Z,25.00
2018-08-16T08:48:44.143Z,25.00
2018-08-16T08:49:46.312Z,25.00
2018-08-16T08:50:48.480Z,25.20
2018-08-16T08:51:51.777Z,25.10
2018-08-16T08:53:04.258Z,25.10
2018-08-16T08:54:50.150Z,25.10
2018-08-16T08:56:03.894Z,25.20
2018-08-16T08:57:17.467Z,25.30
2018-08-16T08:58:31.050Z,25.40
2018-08-16T08:59:33.203Z,25.40
2018-08-16T09:00:35.391Z,25.40
2018-08-16T09:01:37.603Z,25.40
2018-08-16T09:02:39.776Z,25.40
2018-08-16T09:03:41.940Z,25.40
2018-08-16T09:04:44.160Z,25.50
2018-08-16T09:05:46.335Z,25.50
2018-08-16T09:06:48.557Z,25.60
2018-08-16T09:07:50.653Z,25.50
2018-08-16T09:08:52.830Z,25.50
2018-08-16T09:11:18.110Z,25.60
2018-08-16T09:12:31.863Z,25.60
2018-08-16T09:13:45.582Z,25.70
2018-08-16T09:14:59.195Z,25.70
2018-08-16T09:16:04.200Z,25.70
2018-08-16T09:17:06.369Z,25.80
2018-08-16T09:18:08.542Z,25.70
2018-08-16T09:19:11.283Z,25.80
2018-08-16T09:20:13.479Z,25.80
2018-08-16T09:21:15.866Z,25.80
2018-08-16T09:22:18.120Z,25.80
2018-08-16T09:23:20.298Z,25.90
2018-08-16T09:24:22.492Z,25.90
2018-08-16T09:25:31.379Z,25.90
2018-08-16T09:26:39.398Z,25.90
2018-08-16T09:27:41.561Z,25.90
2018-08-16T09:28:43.730Z,26.00
2018-08-16T09:30:23.837Z,26.00
2018-08-16T09:31:37.489Z,26.10
2018-08-16T09:32:51.145Z,26.10
2018-08-16T09:34:04.665Z,26.10
2018-08-16T09:35:06.891Z,26.10
2018-08-16T09:36:09.058Z,26.10
2018-08-16T09:37:15.828Z,26.10
2018-08-16T09:38:17.992Z,26.10
2018-08-16T09:39:20.235Z,26.10
2018-08-16T09:40:22.521Z,26.10
2018-08-16T09:41:24.699Z,26.20
2018-08-16T09:42:26.885Z,26.30
2018-08-16T09:43:29.036Z,26.30
2018-08-16T09:44:31.218Z,26.30
2018-08-16T09:47:48.356Z,26.40
2018-08-16T09:48:50.557Z,26.40
2018-08-16T09:49:52.734Z,26.50
2018-08-16T09:50:54.894Z,26.50
2018-08-16T09:51:57.128Z,26.50
2018-08-16T09:52:59.290Z,26.50
2018-08-16T09:54:01.433Z,26.50
2018-08-16T09:55:03.663Z,26.50
2018-08-16T09:56:05.833Z,26.60
2018-08-16T09:57:09.026Z,26.60
2018-08-16T09:58:11.232Z,26.60
2018-08-16T09:59:13.468Z,26.60
2018-08-16T10:00:15.679Z,26.70
2018-08-16T10:01:17.847Z,26.70
2018-08-16T10:03:44.879Z,26.80
2018-08-16T10:04:47.055Z,26.80
2018-08-16T10:05:49.221Z,26.90
2018-08-16T10:06:51.500Z,26.90
2018-08-16T10:07:53.797Z,26.90
2018-08-16T10:08:56.496Z,27.00
2018-08-16T10:09:58.643Z,27.00
2018-08-16T10:11:00.791Z,27.00
2018-08-16T10:12:03.384Z,27.10
2018-08-16T10:13:06.034Z,27.10
2018-08-16T10:14:08.233Z,27.10
2018-08-16T10:15:10.418Z,27.10
2018-08-16T10:16:12.582Z,27.20
2018-08-16T10:17:14.734Z,27.20
2018-08-16T10:18:16.886Z,27.20
2018-08-16T10:19:19.385Z,27.20
2018-08-16T10:20:21.557Z,27.20
2018-08-16T10:21:23.745Z,27.30
2018-08-16T10:22:25.943Z,27.30
2018-08-16T10:23:28.093Z,27.40
2018-08-16T10:24:30.262Z,27.40
2018-08-16T10:25:32.439Z,27.40
2018-08-16T10:26:34.693Z,27.50
2018-08-16T10:27:36.918Z,27.50
2018-08-16T10:28:39.166Z,27.60
2018-08-16T10:29:41.330Z,27.50
2018-08-16T10:30:43.519Z,27.50
2018-08-16T10:31:45.691Z,27.50
2018-08-16T10:32:47.854Z,27.50
2018-08-16T10:33:50.006Z,27.50
2018-08-16T10:34:52.158Z,27.60
2018-08-16T10:35:54.301Z,27.60
2018-08-16T10:36:56.476Z,27.60
2018-08-16T10:37:58.613Z,27.70
2018-08-16T10:39:00.818Z,27.70
2018-08-16T10:40:03.081Z,27.80
2018-08-16T10:41:06.013Z,27.80
2018-08-16T10:42:08.162Z,27.80
2018-08-16T10:43:10.313Z,27.80
2018-08-16T10:44:13.198Z,27.80
2018-08-16T10:45:15.343Z,27.80
2018-08-16T10:46:17.588Z,27.90
2018-08-16T10:47:19.769Z,27.90
2018-08-16T10:48:21.967Z,27.90
2018-08-16T10:49:24.123Z,27.90
2018-08-16T10:50:26.286Z,27.90
2018-08-16T10:51:28.446Z,28.00
2018-08-16T10:52:30.617Z,28.00
2018-08-16T10:53:32.825Z,28.00
2018-08-16T10:54:34.997Z,28.00
2018-08-16T10:55:37.188Z,28.10
2018-08-16T10:56:39.348Z,28.10
2018-08-16T10:57:41.527Z,28.10
2018-08-16T10:58:43.721Z,28.20
2018-08-16T10:59:45.874Z,28.20
2018-08-16T11:00:48.073Z,28.20
2018-08-16T11:02:59.098Z,28.20
2018-08-16T11:04:01.275Z,28.20
2018-08-16T11:05:03.927Z,28.30
2018-08-16T11:06:06.127Z,28.30
2018-08-16T11:07:08.437Z,28.30
2018-08-16T11:08:10.613Z,28.30
2018-08-16T11:09:12.795Z,28.30
2018-08-16T11:10:14.966Z,28.30
2018-08-16T11:11:17.181Z,28.40
2018-08-16T11:12:19.326Z,28.40
2018-08-16T11:13:21.911Z,28.30
2018-08-16T11:14:24.062Z,28.40
2018-08-16T11:15:26.262Z,28.40
2018-08-16T11:16:28.426Z,28.40
2018-08-16T11:17:30.583Z,28.50
2018-08-16T11:18:32.742Z,28.50
2018-08-16T11:19:34.919Z,28.50
2018-08-16T11:20:37.262Z,28.60
2018-08-16T11:21:39.464Z,28.60
2018-08-16T11:22:41.610Z,28.70
2018-08-16T11:23:43.741Z,28.70
2018-08-16T11:24:45.873Z,28.70
2018-08-16T11:25:48.058Z,28.80
2018-08-16T11:26:50.243Z,28.80
2018-08-16T11:27:52.421Z,28.80
2018-08-16T11:28:54.610Z,28.80
2018-08-16T11:29:56.761Z,28.80
2018-08-16T11:30:58.948Z,28.80
2018-08-16T11:32:01.150Z,28.90
2018-08-16T11:33:03.352Z,28.90
2018-08-16T11:34:05.570Z,28.90
2018-08-16T11:35:07.816Z,28.90
2018-08-16T11:36:09.894Z,29.00
2018-08-16T11:37:12.038Z,29.00
2018-08-16T11:38:14.199Z,29.10
2018-08-16T11:39:16.384Z,29.00
2018-08-16T11:40:18.533Z,29.10
2018-08-16T11:41:20.735Z,29.10
2018-08-16T11:42:22.881Z,29.10
2018-08-16T11:43:25.090Z,29.20
2018-08-16T11:44:27.233Z,29.20
2018-08-16T11:45:29.394Z,29.20
2018-08-16T11:46:31.611Z,29.30
2018-08-16T11:47:33.761Z,29.30
2018-08-16T11:48:35.914Z,29.30
2018-08-16T11:49:38.094Z,29.40
2018-08-16T11:50:40.279Z,29.40
2018-08-16T11:51:42.445Z,29.40
2018-08-16T11:52:44.593Z,29.40
2018-08-16T11:53:46.794Z,29.40
2018-08-16T11:54:48.982Z,29.50
2018-08-16T11:55:51.150Z,29.50
2018-08-16T11:56:53.320Z,29.50
2018-08-16T11:57:55.496Z,29.50
2018-08-16T11:58:57.673Z,29.50
2018-08-16T11:59:59.889Z,29.60
2018-08-16T12:01:02.100Z,29.50
2018-08-16T12:02:04.357Z,29.50
2018-08-16T12:03:06.493Z,29.60
2018-08-16T12:04:08.640Z,29.50
2018-08-16T12:05:10.816Z,29.50
2018-08-16T12:06:13.001Z,29.60
2018-08-16T12:07:15.230Z,29.60
2018-08-16T12:08:17.377Z,29.60
2018-08-16T12:09:19.505Z,29.60
2018-08-16T12:10:21.674Z,29.60
2018-08-16T12:11:23.825Z,29.60
2018-08-16T12:12:26.016Z,29.70
2018-08-16T12:13:28.182Z,29.70
2018-08-16T12:14:30.386Z,29.70
2018-08-16T12:15:32.501Z,29.70
2018-08-16T12:16:34.802Z,29.70
2018-08-16T12:17:36.969Z,29.70
2018-08-16T12:18:39.154Z,29.90
2018-08-16T12:19:41.312Z,29.70
2018-08-16T12:20:43.498Z,29.90
2018-08-16T12:21:45.650Z,29.90
2018-08-16T12:22:47.862Z,29.90
2018-08-16T12:23:50.626Z,29.90
2018-08-16T12:24:52.790Z,30.00
2018-08-16T12:25:54.966Z,30.00
2018-08-16T12:26:57.149Z,30.00
2018-08-16T12:27:59.319Z,30.10
2018-08-16T12:29:01.514Z,30.10
2018-08-16T12:30:05.145Z,30.20
2018-08-16T12:31:07.437Z,30.20
2018-08-16T12:32:09.622Z,30.20
2018-08-16T12:33:11.779Z,30.30
2018-08-16T12:34:13.946Z,30.30
2018-08-16T12:35:16.123Z,30.30
2018-08-16T12:36:18.303Z,30.40
2018-08-16T12:37:20.479Z,30.40
2018-08-16T12:38:22.681Z,30.50
2018-08-16T12:39:24.890Z,30.50
2018-08-16T12:40:27.099Z,30.60
2018-08-16T12:41:29.255Z,30.70
2018-08-16T12:42:31.430Z,30.70
2018-08-16T12:43:35.029Z,30.70
2018-08-16T12:44:37.188Z,30.70
2018-08-16T12:45:39.359Z,30.70
2018-08-16T12:46:41.527Z,30.80
2018-08-16T12:47:43.844Z,30.80
2018-08-16T12:48:45.968Z,30.80
2018-08-16T12:49:48.098Z,30.90
2018-08-16T12:50:50.238Z,30.90
2018-08-16T12:51:52.398Z,31.00
2018-08-16T12:52:54.567Z,31.00
2018-08-16T12:53:56.717Z,31.10
2018-08-16T12:54:58.891Z,31.20
2018-08-16T12:56:01.069Z,31.20
2018-08-16T12:57:03.343Z,31.20
2018-08-16T12:58:05.541Z,31.20
2018-08-16T12:59:07.751Z,31.30
2018-08-16T13:00:13.498Z,31.30
2018-08-16T13:01:15.637Z,31.30
2018-08-16T13:02:17.826Z,31.30
2018-08-16T13:03:19.999Z,31.30
2018-08-16T13:04:22.238Z,31.30
2018-08-16T13:05:24.835Z,31.40
2018-08-16T13:06:26.997Z,31.40
2018-08-16T13:07:29.191Z,31.40
2018-08-16T13:08:31.366Z,31.40
2018-08-16T13:09:33.534Z,31.40
2018-08-16T13:10:35.746Z,31.40
2018-08-16T13:11:38.497Z,31.40
2018-08-16T13:12:40.714Z,31.50
2018-08-16T13:13:42.922Z,31.50
2018-08-16T13:14:45.078Z,31.60
2018-08-16T13:15:47.271Z,31.70
2018-08-16T13:16:49.434Z,31.70
2018-08-16T13:17:51.628Z,31.80
2018-08-16T13:18:53.801Z,31.90
2018-08-16T13:19:56.010Z,31.90
2018-08-16T13:20:58.201Z,32.00
2018-08-16T13:22:00.399Z,32.10
2018-08-16T13:23:02.562Z,32.10
2018-08-16T13:24:04.762Z,32.20
2018-08-16T13:25:07.477Z,32.20
2018-08-16T13:26:09.644Z,32.30
2018-08-16T13:27:11.857Z,32.30
2018-08-16T13:28:14.446Z,32.40
2018-08-16T13:29:16.590Z,32.40
2018-08-16T13:30:18.768Z,32.50
2018-08-16T13:31:21.057Z,32.50
2018-08-16T13:32:23.205Z,32.50
2018-08-16T13:33:25.487Z,32.60